Time;durP1;ratioP1;P1;durP2;ratioP2;P2;SDS_P1;SDS_P2;PMS_P1;PMS_P2;Temp;Humidity;BMP_temperature;BMP_pressure;BME280_temperature;BME280_humidity;BME280_pressure;Samples;Min_cycle;Max_cycle;Signal;HPM_P1;HPM_P2
2022/12/05 05:22:05;;;;;;;3.95;3.22;;;;;;;3.91;100.00;100959.94;5565946;32;325967;-88
2022/12/05 05:25:08;;;;;;;19.50;12.18;;;;;;;3.91;100.00;100959.94;5557583;32;34440;-89
2022/12/05 05:28:10;;;;;;;23.00;12.68;;;;;;;3.47;100.00;100972.69;5544783;32;33707;-88
2022/12/05 05:31:15;;;;;;;22.15;11.18;;;;;;;3.52;100.00;100983.13;5539099;32;32264;-88
2022/12/05 05:34:17;;;;;;;20.70;11.80;;;;;;;3.51;100.00;100998.00;5524262;32;34678;-89
2022/12/05 05:37:20;;;;;;;17.12;10.40;;;;;;;3.58;100.00;100997.03;5523747;32;34085;-92
2022/12/05 05:40:23;;;;;;;16.27;10.63;;;;;;;3.64;100.00;100991.72;5524915;32;34112;-92
2022/12/05 05:43:26;;;;;;;19.52;11.18;;;;;;;3.64;100.00;100983.00;5528123;32;34995;-90
2022/12/05 05:46:32;;;;;;;18.12;11.00;;;;;;;3.70;100.00;100982.03;5542586;32;34385;-91
2022/12/05 05:49:35;;;;;;;17.73;11.25;;;;;;;3.76;100.00;100987.22;5543591;32;33795;-89
2022/12/05 05:52:37;;;;;;;17.75;11.98;;;;;;;3.64;100.00;100991.72;5543981;32;34513;-87
2022/12/05 05:55:40;;;;;;;19.37;12.18;;;;;;;3.67;100.00;100996.06;5543969;32;35137;-86
2022/12/05 05:58:44;;;;;;;19.60;11.40;;;;;;;3.64;100.00;100999.59;5557591;32;34089;-86
2022/12/05 06:01:46;;;;;;;18.65;11.35;;;;;;;3.68;100.00;100995.22;5544231;32;34168;-87
2022/12/05 06:04:49;;;;;;;17.02;11.32;;;;;;;3.83;100.00;100998.53;5544976;32;34125;-87
2022/12/05 06:07:52;;;;;;;22.33;12.68;;;;;;;3.86;100.00;100998.47;5538246;32;32659;-87
2022/12/05 06:10:55;;;;;;;19.12;11.50;;;;;;;3.84;100.00;101000.25;5562659;32;34708;-88
2022/12/05 06:14:01;;;;;;;20.12;11.65;;;;;;;3.85;100.00;101002.00;5563113;32;34398;-87
2022/12/05 06:17:04;;;;;;;20.67;12.40;;;;;;;3.80;100.00;101004.69;5569821;32;34974;-87
2022/12/05 06:20:08;;;;;;;21.42;12.73;;;;;;;3.80;100.00;101009.94;5576847;31;33764;-88
2022/12/05 06:23:11;;;;;;;22.83;12.48;;;;;;;3.91;100.00;101015.94;5566289;32;33211;-87
2022/12/05 06:26:16;;;;;;;19.25;12.57;;;;;;;3.89;100.00;101019.47;5561999;32;34303;-88
2022/12/05 06:29:19;;;;;;;20.92;13.18;;;;;;;3.93;100.00;101015.91;5568935;32;33932;-87
2022/12/05 06:32:28;;;;;;;21.15;12.95;;;;;;;3.84;100.00;101022.16;5579946;32;33699;-88
2022/12/05 06:35:31;;;;;;;19.25;12.32;;;;;;;3.71;100.00;101021.41;5563305;32;33499;-89
2022/12/05 06:38:39;;;;;;;20.77;13.13;;;;;;;3.77;100.00;101021.34;5538905;32;34286;-87
2022/12/05 06:41:44;;;;;;;23.55;13.35;;;;;;;3.92;100.00;101022.03;5544092;32;33762;-88
2022/12/05 06:44:46;;;;;;;20.95;13.30;;;;;;;3.91;100.00;101018.56;5530019;32;34495;-87
2022/12/05 06:47:51;;;;;;;20.25;12.95;;;;;;;3.90;100.00;101023.81;5542090;32;34024;-87
2022/12/05 06:50:54;;;;;;;19.87;12.60;;;;;;;4.02;100.00;101018.41;5530710;32;34210;-87
2022/12/05 06:53:57;;;;;;;21.20;12.52;;;;;;;4.07;100.00;101022.75;5524248;32;32181;-87
2022/12/05 06:56:59;;;;;;;20.62;13.25;;;;;;;4.01;100.00;101024.56;5547074;32;34143;-88
2022/12/05 07:03:24;;;;;;;22.37;13.25;;;;;;;4.11;100.00;101030.56;5539623;32;32618;-86
2022/12/05 07:06:28;;;;;;;21.95;12.75;;;;;;;4.04;100.00;101029.75;5530239;32;34467;-87
2022/12/05 07:13:03;;;;;;;22.20;13.43;;;;;;;3.95;100.00;101037.75;5528023;32;34280;-90
2022/12/05 07:16:06;;;;;;;23.95;13.57;;;;;;;4.07;100.00;101052.50;5544826;32;35125;-90
2022/12/05 07:19:09;;;;;;;19.08;12.65;;;;;;;3.96;100.00;101054.37;5533171;32;35797;-91
2022/12/05 07:22:12;;;;;;;21.25;13.55;;;;;;;3.99;100.00;101055.22;5533568;32;34053;-88
2022/12/05 07:25:19;;;;;;;22.48;13.35;;;;;;;4.08;100.00;101050.75;5543089;32;33993;-87
2022/12/05 07:28:21;;;;;;;21.87;13.60;;;;;;;4.07;100.00;101049.88;5543970;32;33635;-87
2022/12/05 07:31:28;;;;;;;20.48;13.27;;;;;;;4.13;100.00;101049.78;5530165;32;33944;-88
2022/12/05 07:34:31;;;;;;;22.83;13.00;;;;;;;4.15;100.00;101048.03;5547728;32;34417;-87
2022/12/05 07:37:34;;;;;;;21.20;12.88;;;;;;;4.19;100.00;101046.25;5548269;32;33435;-87
2022/12/05 07:40:37;;;;;;;23.62;13.25;;;;;;;4.17;100.00;101055.88;5551211;32;33752;-87
2022/12/05 07:43:41;;;;;;;19.85;13.02;;;;;;;4.16;100.00;101065.53;5549946;32;33849;-88
2022/12/05 07:46:43;;;;;;;20.37;12.80;;;;;;;4.24;100.00;101067.19;5539998;32;34575;-88
2022/12/05 07:49:46;;;;;;;21.87;13.00;;;;;;;4.32;100.00;101070.56;5545379;32;34186;-88
2022/12/05 07:52:49;;;;;;;22.10;12.30;;;;;;;4.34;100.00;101073.19;5537078;32;33742;-88
2022/12/05 07:55:52;;;;;;;21.75;12.65;;;;;;;4.31;100.00;101059.22;5547804;32;34203;-89
2022/12/05 07:58:54;;;;;;;18.52;11.77;;;;;;;4.31;100.00;101067.09;5537480;32;35320;-88
2022/12/05 08:01:57;;;;;;;19.62;11.77;;;;;;;4.56;100.00;101073.78;5543582;32;34255;-88
2022/12/05 08:05:00;;;;;;;18.67;12.32;;;;;;;4.65;100.00;101076.28;5546286;32;33519;-89
2022/12/05 08:30:50;;;;;;;15.00;10.77;;;;;;;4.68;100.00;101083.28;4096485;29;20087;-88
2022/12/05 08:37:25;;;;;;;16.80;11.05;;;;;;;4.76;100.00;101085.78;5445810;32;31830;-89
2022/12/05 08:40:30;;;;;;;18.37;11.48;;;;;;;4.61;100.00;101086.84;5456099;32;33770;-89
2022/12/05 08:43:32;;;;;;;17.92;11.23;;;;;;;4.80;100.00;101098.00;5450179;32;33618;-89
2022/12/05 08:46:37;;;;;;;17.42;11.68;;;;;;;4.84;100.00;101090.03;5456332;32;33962;-90
2022/12/05 08:49:55;;;;;;;14.60;10.35;;;;;;;5.03;100.00;101091.53;5524786;26;33963;-90
2022/12/05 08:56:37;;;;;;;16.15;11.07;;;;;;;4.85;100.00;101089.16;2840711;26;20087;-89
2022/12/05 08:59:40;;;;;;;20.30;12.20;;;;;;;4.73;100.00;101089.34;5537856;32;33499;-88
2022/12/05 09:02:42;;;;;;;16.67;11.32;;;;;;;4.77;100.00;101084.91;5536924;32;33946;-88
2022/12/05 09:05:46;;;;;;;17.27;12.15;;;;;;;4.83;100.00;101083.03;5539542;32;34574;-88
2022/12/05 09:08:52;;;;;;;17.45;11.82;;;;;;;4.91;100.00;101093.44;5533062;32;33890;-89
2022/12/05 09:26:55;;;;;;;18.67;12.05;;;;;;;5.11;100.00;101066.84;1143551;26;20399;-89
2022/12/05 09:29:58;;;;;;;15.98;11.45;;;;;;;5.12;100.00;101073.84;5539649;32;32212;-90
2022/12/05 09:33:00;;;;;;;19.12;12.80;;;;;;;5.24;100.00;101062.25;5542349;32;34568;-89
2022/12/05 09:36:13;;;;;;;18.08;12.20;;;;;;;5.21;100.00;101064.06;5590288;26;33894;-90
2022/12/05 09:43:04;;;;;;;18.85;11.60;;;;;;;5.31;100.00;101064.78;5356573;30;20069;-90
2022/12/05 09:46:51;;;;;;;17.00;11.57;;;;;;;5.23;100.00;101063.16;5510991;32;33833;-90
2022/12/05 09:50:15;;;;;;;17.83;12.18;;;;;;;5.17;100.00;101060.63;5499445;32;33041;-90
2022/12/05 09:53:21;;;;;;;18.92;12.07;;;;;;;5.25;100.00;101061.34;5520948;27;32318;-89
2022/12/05 09:56:29;;;;;;;17.98;11.77;;;;;;;5.18;100.00;101057.09;5522956;32;33735;-89
2022/12/05 09:59:34;;;;;;;17.52;11.90;;;;;;;5.16;100.00;101052.75;5521867;32;34614;-89
2022/12/05 10:02:51;;;;;;;15.57;11.38;;;;;;;5.18;100.00;101054.47;5575522;26;34057;-90
2022/12/05 10:06:01;;;;;;;16.60;12.18;;;;;;;5.22;100.00;101048.25;5566941;26;33832;-90
2022/12/05 10:09:20;;;;;;;19.80;12.95;;;;;;;5.34;100.00;101054.22;5585379;26;33927;-90
2022/12/05 10:13:02;;;;;;;16.65;12.57;;;;;;;5.35;100.00;101046.31;5525571;32;33410;-92
2022/12/05 10:16:11;;;;;;;14.38;11.10;;;;;;;5.47;100.00;101041.69;5543950;32;33708;-88
2022/12/05 10:19:24;;;;;;;18.08;12.68;;;;;;;5.52;100.00;101046.00;5538500;32;34021;-88
2022/12/05 10:22:48;;;;;;;18.58;12.00;;;;;;;5.58;100.00;101046.78;5539893;32;35200;-88
2022/12/05 10:25:57;;;;;;;16.55;12.20;;;;;;;5.61;100.00;101038.81;5544641;32;33582;-87
2022/12/05 10:29:21;;;;;;;17.23;12.70;;;;;;;5.74;100.00;101034.22;5541471;32;34193;-88
2022/12/05 10:32:29;;;;;;;16.98;12.60;;;;;;;5.83;100.00;101031.38;5553086;32;35042;-88
2022/12/05 10:35:35;;;;;;;21.40;13.90;;;;;;;5.91;100.00;101031.25;5557863;32;33708;-88
2022/12/05 10:38:42;;;;;;;18.95;12.88;;;;;;;5.80;100.00;101027.03;5542483;32;34065;-88
2022/12/05 10:41:44;;;;;;;17.27;13.18;;;;;;;5.72;100.00;101021.06;5545899;32;34178;-87
2022/12/05 10:44:49;;;;;;;19.27;12.90;;;;;;;5.97;100.00;101015.31;5532768;32;33136;-87
2022/12/05 10:47:56;;;;;;;16.75;13.25;;;;;;;5.93;100.00;101016.28;5539283;32;35053;-87
2022/12/05 10:50:59;;;;;;;18.27;13.88;;;;;;;6.06;100.00;101011.66;5559303;32;32182;-87
2022/12/05 10:54:16;;;;;;;17.77;13.27;;;;;;;6.07;100.00;101003.75;5546172;32;32620;-87
2022/12/05 10:57:29;;;;;;;17.15;13.25;;;;;;;6.31;100.00;101000.59;5550643;32;33910;-91
2022/12/05 11:00:31;;;;;;;18.87;13.18;;;;;;;6.20;100.00;100991.16;5554096;32;33845;-87
2022/12/05 11:03:38;;;;;;;16.83;13.30;;;;;;;6.39;100.00;100990.75;5541401;32;34362;-87
2022/12/05 11:06:49;;;;;;;17.85;13.93;;;;;;;6.44;100.00;100996.78;5538513;32;33962;-87
2022/12/05 11:09:56;;;;;;;17.92;13.35;;;;;;;6.11;100.00;100996.63;5542418;32;34635;-87
2022/12/05 11:12:59;;;;;;;17.77;13.30;;;;;;;6.04;100.00;100995.03;5531771;32;33127;-87
2022/12/05 11:16:02;;;;;;;23.67;14.93;;;;;;;6.15;100.00;100993.06;5541944;32;33730;-87
2022/12/05 11:19:20;;;;;;;21.37;15.07;;;;;;;6.27;100.00;100984.00;5531867;32;32446;-87
2022/12/05 11:22:30;;;;;;;23.17;15.20;;;;;;;6.21;100.00;100978.88;5536627;32;33750;-88
2022/12/05 11:25:41;;;;;;;20.15;15.10;;;;;;;6.41;100.00;100972.28;5546048;32;34374;-88
2022/12/05 11:28:44;;;;;;;19.92;14.98;;;;;;;6.19;100.00;100976.25;5532379;32;33835;-88
2022/12/05 11:31:51;;;;;;;23.65;15.93;;;;;;;5.99;100.00;100970.53;5537683;32;32794;-88
2022/12/05 11:35:12;;;;;;;23.85;16.20;;;;;;;5.94;100.00;100973.25;5546443;32;34110;-88
2022/12/05 11:38:16;;;;;;;;;;;;;;;5.90;100.00;100979.47;5546394;32;34776;-86
2022/12/05 11:41:39;;;;;;;19.67;14.65;;;;;;;5.90;100.00;100971.59;5546554;32;34096;-86
2022/12/05 11:44:58;;;;;;;24.48;15.80;;;;;;;6.24;100.00;100975.28;5542840;32;34845;-87
2022/12/05 11:48:56;;;;;;;20.80;15.65;;;;;;;6.32;100.00;100968.97;5541740;32;33653;-92
2022/12/05 11:52:42;;;;;;;20.50;15.15;;;;;;;6.25;100.00;100962.09;5438060;32;33486;-89
2022/12/05 11:56:31;;;;;;;23.02;16.67;;;;;;;6.38;100.00;100946.00;5432147;32;33010;-90
2022/12/05 12:00:01;;;;;;;22.83;16.45;;;;;;;6.13;100.00;100947.41;5397602;32;33763;-89
2022/12/05 12:03:57;;;;;;;21.42;16.08;;;;;;;6.23;100.00;100950.69;5437072;32;34192;-90
2022/12/05 12:07:11;;;;;;;24.50;17.75;;;;;;;5.97;100.00;100946.84;5375137;33;33608;-89
2022/12/05 12:10:59;;;;;;;23.70;16.50;;;;;;;5.96;100.00;100947.75;5387918;33;34547;-89
2022/12/05 12:14:38;;;;;;;23.73;16.35;;;;;;;6.03;100.00;100943.25;5423285;27;33950;-88
2022/12/05 12:18:06;;;;;;;;;;;;;;;6.09;100.00;100934.34;5388900;33;34044;-89
2022/12/05 12:25:13;;;;;;;29.12;19.33;;;;;;;5.91;100.00;100933.81;5387638;32;20683;-89
2022/12/05 12:29:06;;;;;;;29.25;19.23;;;;;;;5.74;100.00;100936.81;5474954;27;33370;-88
2022/12/05 12:32:17;;;;;;;30.08;19.42;;;;;;;5.72;100.00;100931.56;5456858;32;32726;-86
2022/12/05 12:35:35;;;;;;;31.27;20.15;;;;;;;5.85;100.00;100926.03;5451667;32;33858;-86
2022/12/05 12:38:51;;;;;;;28.12;19.20;;;;;;;5.96;100.00;100920.53;5454981;32;33481;-85
2022/12/05 12:42:16;;;;;;;28.48;19.48;;;;;;;5.95;100.00;100922.31;5502544;32;32437;-90
2022/12/05 12:45:31;;;;;;;26.42;17.92;;;;;;;5.71;100.00;100921.94;5518328;32;34173;-86
2022/12/05 12:48:37;;;;;;;23.25;16.75;;;;;;;5.73;100.00;100908.75;5520702;32;32804;-86
2022/12/05 12:51:56;;;;;;;24.42;16.50;;;;;;;5.76;100.00;100922.72;5517861;32;33888;-87
2022/12/05 12:55:21;;;;;;;24.33;16.75;;;;;;;5.96;100.00;100917.91;5527006;32;34097;-88
2022/12/05 12:58:46;;;;;;;23.45;16.62;;;;;;;5.79;100.00;100921.78;5524997;32;34445;-89
2022/12/05 13:02:08;;;;;;;20.92;15.20;;;;;;;5.66;100.00;100914.16;5525945;32;33906;-87
2022/12/05 13:05:36;;;;;;;21.08;15.82;;;;;;;5.87;100.00;100913.69;5516195;32;33016;-86
2022/12/05 13:15:56;;;;;;;19.58;14.45;;;;;;;5.78;100.00;100905.09;4817124;26;20132;-88
2022/12/05 13:19:01;;;;;;;21.70;15.82;;;;;;;5.86;100.00;100909.34;5637552;26;33897;-86
2022/12/05 13:22:16;;;;;;;25.05;17.25;;;;;;;5.68;100.00;100902.72;5601349;26;35101;-90
2022/12/05 13:29:20;;;;;;;24.48;16.37;;;;;;;5.83;100.00;100910.28;5231673;26;20128;-88
2022/12/05 13:32:39;;;;;;;25.55;17.10;;;;;;;5.77;100.00;100899.88;5490010;32;33100;-89
2022/12/05 13:42:42;;;;;;;29.60;18.15;;;;;;;5.69;100.00;100892.16;5378871;30;20109;-89
2022/12/05 13:46:05;;;;;;;26.58;17.62;;;;;;;5.66;100.00;100895.72;5559076;31;34638;-90
2022/12/05 13:49:30;;;;;;;24.58;17.10;;;;;;;5.63;100.00;100905.44;5559858;26;33102;-89
2022/12/05 13:52:52;;;;;;;24.65;17.50;;;;;;;5.72;100.00;100909.62;5550156;32;34825;-89
2022/12/05 13:56:18;;;;;;;27.60;18.05;;;;;;;5.63;100.00;100906.28;5545962;32;33785;-88
2022/12/05 13:59:55;;;;;;;25.73;17.80;;;;;;;5.67;100.00;100901.84;5535870;32;33968;-88
2022/12/05 14:03:03;;;;;;;26.08;17.90;;;;;;;5.78;100.00;100905.09;5550319;32;34044;-88
2022/12/05 14:06:06;;;;;;;25.33;17.02;;;;;;;5.80;100.00;100919.09;5541730;32;33913;-88
2022/12/05 14:09:10;;;;;;;23.10;17.30;;;;;;;5.77;100.00;100923.56;5547995;32;35297;-89
2022/12/05 14:12:13;;;;;;;26.35;17.83;;;;;;;5.69;100.00;100915.84;5546018;32;33630;-89
2022/12/05 14:15:32;;;;;;;27.58;18.00;;;;;;;5.69;100.00;100918.47;5536572;32;35023;-89
2022/12/05 14:18:53;;;;;;;25.75;18.40;;;;;;;5.61;100.00;100904.59;5551035;32;34237;-89
2022/12/05 14:22:32;;;;;;;26.02;18.37;;;;;;;5.71;100.00;100902.63;5551871;32;33619;-87
2022/12/05 14:25:50;;;;;;;26.20;17.83;;;;;;;5.80;100.00;100902.44;5526028;32;34716;-87
2022/12/05 14:29:27;;;;;;;27.08;17.92;;;;;;;5.68;100.00;100903.56;5543088;32;33954;-87
2022/12/05 14:32:37;;;;;;;27.87;17.65;;;;;;;5.72;100.00;100891.19;5531255;32;34268;-90
2022/12/05 14:35:44;;;;;;;26.62;18.35;;;;;;;5.69;100.00;100901.81;5555583;32;34476;-87
2022/12/05 14:38:47;;;;;;;25.05;18.00;;;;;;;5.70;100.00;100906.16;5554610;32;34248;-86
2022/12/05 14:42:00;;;;;;;26.35;17.70;;;;;;;5.72;100.00;100914.87;5551185;32;34282;-86
2022/12/05 14:45:21;;;;;;;26.40;18.50;;;;;;;5.68;100.00;100911.47;5541354;32;34788;-87
2022/12/05 14:48:45;;;;;;;26.80;18.70;;;;;;;5.70;100.00;100898.28;5550644;32;32916;-87
2022/12/05 14:51:56;;;;;;;25.77;18.15;;;;;;;5.71;100.00;100900.00;5534522;32;34193;-87
2022/12/05 14:55:04;;;;;;;26.55;18.40;;;;;;;5.67;100.00;100893.94;5555806;32;34344;-87
2022/12/05 14:58:20;;;;;;;27.42;18.77;;;;;;;5.72;100.00;100893.81;5557131;32;34575;-87
2022/12/05 15:01:28;;;;;;;27.70;18.67;;;;;;;5.62;100.00;100891.41;5550088;32;34010;-87
2022/12/05 15:04:34;;;;;;;29.73;19.60;;;;;;;5.61;100.00;100883.53;5551222;32;33937;-87
2022/12/05 15:07:38;;;;;;;29.20;19.90;;;;;;;5.72;100.00;100883.28;5550778;32;34078;-87
2022/12/05 15:10:42;;;;;;;30.77;19.50;;;;;;;5.66;100.00;100887.81;5549717;32;33828;-87
2022/12/05 15:13:44;;;;;;;29.75;19.52;;;;;;;5.70;100.00;100888.63;5549789;32;32539;-86
2022/12/05 15:16:52;;;;;;;27.75;19.42;;;;;;;5.74;100.00;100887.63;5585773;32;35115;-89
2022/12/05 15:20:02;;;;;;;29.23;19.37;;;;;;;5.78;100.00;100884.03;5577243;32;34942;-87
2022/12/05 15:23:44;;;;;;;28.90;18.55;;;;;;;5.74;100.00;100881.53;5570599;32;34156;-88
2022/12/05 15:26:55;;;;;;;26.62;18.17;;;;;;;5.87;100.00;100882.97;5540377;32;34436;-87
2022/12/05 15:29:58;;;;;;;30.05;18.70;;;;;;;5.80;100.00;100878.75;5570036;32;33223;-88
2022/12/05 15:33:01;;;;;;;26.23;18.27;;;;;;;5.89;100.00;100880.31;5569131;32;34568;-88
2022/12/05 15:36:04;;;;;;;27.45;18.62;;;;;;;5.83;100.00;100880.47;5558846;32;34482;-88
2022/12/05 15:39:18;;;;;;;28.20;18.90;;;;;;;5.97;100.00;100872.22;5556042;32;34496;-87
2022/12/05 15:42:43;;;;;;;25.35;17.87;;;;;;;5.98;100.00;100872.19;5558729;32;33787;-87
2022/12/05 15:45:46;;;;;;;27.33;18.77;;;;;;;5.92;100.00;100860.06;5569099;32;34040;-87
2022/12/05 15:48:54;;;;;;;26.70;17.80;;;;;;;5.77;100.00;100861.25;5558604;32;33770;-87
2022/12/05 15:52:17;;;;;;;31.37;18.37;;;;;;;5.91;100.00;100853.06;5565432;32;34211;-87
2022/12/05 15:55:31;;;;;;;28.50;18.23;;;;;;;5.88;100.00;100847.84;5541918;32;32718;-87
2022/12/05 15:58:46;;;;;;;26.05;17.55;;;;;;;5.91;100.00;100844.28;5535995;32;33751;-87
2022/12/05 16:01:57;;;;;;;30.10;19.23;;;;;;;6.03;100.00;100843.19;5541879;32;33549;-87
2022/12/05 16:05:01;;;;;;;28.77;18.05;;;;;;;5.83;100.00;100848.88;5549601;32;36417;-87
2022/12/05 16:08:04;;;;;;;27.30;17.90;;;;;;;5.78;100.00;100852.44;5537206;31;32609;-91
2022/12/05 16:11:11;;;;;;;25.02;17.52;;;;;;;5.84;100.00;100853.22;5545196;32;32930;-91
2022/12/05 16:14:14;;;;;;;25.65;17.25;;;;;;;5.91;100.00;100854.81;5578087;32;33292;-91
2022/12/05 16:17:42;;;;;;;25.02;16.30;;;;;;;5.84;100.00;100855.84;5573818;32;34829;-87
2022/12/05 16:20:45;;;;;;;24.85;16.42;;;;;;;5.85;100.00;100862.84;5559103;32;33397;-87
2022/12/05 16:23:48;;;;;;;24.90;16.20;;;;;;;5.78;100.00;100856.84;5577964;32;35474;-87
2022/12/05 16:27:10;;;;;;;24.17;16.37;;;;;;;5.89;100.00;100857.47;5561737;32;33582;-87
2022/12/05 16:30:21;;;;;;;23.20;15.77;;;;;;;5.92;100.00;100849.53;5551909;32;34411;-87
2022/12/05 16:33:23;;;;;;;24.40;15.50;;;;;;;5.90;100.00;100853.09;5559939;32;33278;-87
